createdAt,value
2022-09-17T00:01:33.095Z,100.00
2022-09-17T00:04:04.936Z,100.00
2022-09-17T00:06:33.868Z,100.00
2022-09-17T00:09:01.716Z,100.00
2022-09-17T00:11:31.203Z,100.00
2022-09-17T00:14:01.825Z,100.00
2022-09-17T00:16:31.318Z,100.00
2022-09-17T00:19:00.030Z,100.00
2022-09-17T00:21:28.292Z,100.00
2022-09-17T00:23:56.971Z,100.00
2022-09-17T00:26:24.866Z,100.00
2022-09-17T00:28:52.687Z,100.00
2022-09-17T00:31:22.522Z,100.00
2022-09-17T00:33:50.632Z,100.00
2022-09-17T00:36:20.439Z,100.00
2022-09-17T00:38:50.202Z,100.00
2022-09-17T00:41:18.075Z,100.00
2022-09-17T00:43:47.585Z,100.00
2022-09-17T00:46:26.075Z,100.00
2022-09-17T00:48:54.569Z,100.00
2022-09-17T00:51:28.651Z,100.00
2022-09-17T00:53:56.714Z,100.00
2022-09-17T00:56:27.156Z,100.00
2022-09-17T00:58:55.847Z,100.00
2022-09-17T01:01:25.062Z,100.00
2022-09-17T01:03:52.699Z,100.00
2022-09-17T01:06:26.639Z,100.00
2022-09-17T01:09:04.815Z,100.00
2022-09-17T01:11:41.454Z,100.00
2022-09-17T01:14:19.582Z,100.00
2022-09-17T01:16:55.421Z,100.00
2022-09-17T01:19:45.400Z,100.00
2022-09-17T01:22:15.223Z,100.00
2022-09-17T01:25:17.881Z,100.00
2022-09-17T01:28:02.695Z,100.00
2022-09-17T01:30:41.480Z,100.00
2022-09-17T01:33:15.015Z,100.00
2022-09-17T01:35:47.515Z,100.00
2022-09-17T01:38:20.439Z,100.00
2022-09-17T01:40:51.365Z,100.00
2022-09-17T01:43:23.187Z,100.00
2022-09-17T01:45:53.348Z,100.00
2022-09-17T01:48:22.013Z,100.00
2022-09-17T01:50:53.558Z,100.00
2022-09-17T01:53:23.907Z,100.00
2022-09-17T01:55:53.161Z,100.00
2022-09-17T01:58:24.928Z,100.00
2022-09-17T02:00:57.372Z,100.00
2022-09-17T02:03:30.376Z,100.00
2022-09-17T02:06:01.664Z,100.00
2022-09-17T02:08:32.573Z,100.00
2022-09-17T02:11:04.615Z,100.00
2022-09-17T02:13:34.412Z,100.00
2022-09-17T02:16:07.287Z,100.00
2022-09-17T02:18:38.720Z,100.00
2022-09-17T02:21:09.755Z,100.00
2022-09-17T02:23:44.412Z,100.00
2022-09-17T02:26:14.797Z,100.00
2022-09-17T02:28:44.898Z,100.00
2022-09-17T02:31:14.059Z,100.00
2022-09-17T02:33:42.969Z,100.00
2022-09-17T02:36:10.568Z,100.00
2022-09-17T02:38:39.530Z,100.00
2022-09-17T02:41:14.338Z,100.00
2022-09-17T02:43:51.151Z,100.00
2022-09-17T02:46:32.560Z,100.00
2022-09-17T02:49:11.460Z,100.00
2022-09-17T02:51:46.331Z,100.00
2022-09-17T02:54:19.187Z,100.00
2022-09-17T02:56:51.998Z,100.00
2022-09-17T02:59:24.863Z,100.00
2022-09-17T03:01:58.105Z,100.00
2022-09-17T03:04:26.583Z,100.00
2022-09-17T03:06:54.209Z,100.00
2022-09-17T03:09:21.776Z,100.00
2022-09-17T03:11:49.285Z,100.00
2022-09-17T03:14:16.862Z,100.00
2022-09-17T03:16:44.412Z,100.00
2022-09-17T03:19:13.331Z,100.00
2022-09-17T03:21:40.825Z,100.00
2022-09-17T03:24:08.650Z,100.00
2022-09-17T03:26:36.164Z,100.00
2022-09-17T03:29:03.741Z,100.00
2022-09-17T03:31:31.304Z,100.00
2022-09-17T03:33:59.407Z,100.00
2022-09-17T03:36:28.422Z,100.00
2022-09-17T03:38:56.326Z,100.00
2022-09-17T03:41:24.542Z,100.00
2022-09-17T03:43:52.091Z,100.00
2022-09-17T03:46:20.254Z,100.00
2022-09-17T03:48:48.084Z,100.00
2022-09-17T03:51:15.651Z,100.00
2022-09-17T03:53:44.533Z,100.00
2022-09-17T03:56:12.092Z,100.00
2022-09-17T03:58:39.872Z,100.00
2022-09-17T04:01:07.608Z,100.00
2022-09-17T04:03:35.560Z,100.00
2022-09-17T04:06:03.154Z,100.00
2022-09-17T04:08:30.704Z,100.00
2022-09-17T04:10:59.614Z,100.00
2022-09-17T04:13:27.152Z,100.00
2022-09-17T04:15:54.941Z,100.00
2022-09-17T04:18:22.549Z,100.00
2022-09-17T04:20:50.102Z,100.00
2022-09-17T04:23:17.688Z,100.00
2022-09-17T04:25:45.247Z,100.00
2022-09-17T04:28:14.152Z,100.00
2022-09-17T04:30:42.903Z,100.00
2022-09-17T04:33:10.880Z,100.00
2022-09-17T04:35:38.440Z,100.00
2022-09-17T04:38:06.035Z,100.00
2022-09-17T04:40:33.667Z,100.00
2022-09-17T04:43:03.366Z,100.00
2022-09-17T04:45:33.334Z,100.00
2022-09-17T04:48:01.811Z,100.00
2022-09-17T04:50:29.404Z,100.00
2022-09-17T04:52:57.061Z,100.00
2022-09-17T04:55:25.266Z,100.00
2022-09-17T04:57:54.153Z,100.00
2022-09-17T05:00:22.696Z,100.00
2022-09-17T05:02:53.230Z,100.00
2022-09-17T05:05:21.370Z,100.00
2022-09-17T05:07:48.937Z,100.00
2022-09-17T05:10:18.022Z,100.00
2022-09-17T05:12:49.045Z,100.00
2022-09-17T05:15:17.458Z,100.00
2022-09-17T05:17:45.062Z,100.00
2022-09-17T05:20:14.496Z,100.00
2022-09-17T05:22:43.774Z,100.00
2022-09-17T05:25:12.041Z,100.00
2022-09-17T05:27:40.098Z,100.00
2022-09-17T05:30:09.086Z,100.00
2022-09-17T05:32:36.725Z,100.00
2022-09-17T05:35:05.907Z,100.00
2022-09-17T05:37:35.269Z,100.00
2022-09-17T05:40:03.383Z,100.00
2022-09-17T05:42:31.039Z,100.00
2022-09-17T05:44:58.557Z,100.00
2022-09-17T05:47:26.216Z,100.00
2022-09-17T05:49:53.782Z,100.00
2022-09-17T05:52:21.416Z,100.00
2022-09-17T05:54:50.318Z,100.00
2022-09-17T05:57:17.876Z,100.00
2022-09-17T05:59:45.401Z,100.00
2022-09-17T06:02:14.354Z,100.00
2022-09-17T06:04:41.938Z,100.00
2022-09-17T06:07:09.550Z,100.00
2022-09-17T06:09:38.468Z,100.00
2022-09-17T06:12:08.144Z,100.00
2022-09-17T06:14:35.676Z,100.00
2022-09-17T06:17:03.224Z,100.00
2022-09-17T06:19:30.776Z,100.00
2022-09-17T06:21:58.353Z,100.00
2022-09-17T06:24:25.905Z,100.00
2022-09-17T06:26:53.532Z,100.00
2022-09-17T06:29:22.445Z,100.00
2022-09-17T06:31:50.096Z,100.00
2022-09-17T06:34:18.215Z,100.00
2022-09-17T06:36:45.766Z,100.00
2022-09-17T06:39:13.405Z,100.00
2022-09-17T06:41:43.115Z,100.00
2022-09-17T06:44:10.668Z,100.00
2022-09-17T06:46:39.615Z,99.65
2022-09-17T06:49:07.173Z,98.92
2022-09-17T06:51:34.709Z,98.19
2022-09-17T06:54:02.415Z,97.10
2022-09-17T06:56:29.968Z,96.52
2022-09-17T06:58:57.557Z,95.90
2022-09-17T07:01:25.334Z,96.20
2022-09-17T07:03:54.784Z,96.75
2022-09-17T07:06:22.481Z,96.92
2022-09-17T07:08:51.133Z,97.13
2022-09-17T07:11:18.687Z,96.24
2022-09-17T07:13:46.293Z,95.41
2022-09-17T07:16:13.990Z,94.55
2022-09-17T07:18:41.516Z,94.67
2022-09-17T07:21:10.951Z,93.78
2022-09-17T07:23:38.835Z,92.95
2022-09-17T07:26:08.375Z,92.98
2022-09-17T07:28:36.066Z,92.37
2022-09-17T07:31:05.205Z,91.93
2022-09-17T07:33:33.795Z,90.67
2022-09-17T07:36:02.843Z,89.47
2022-09-17T07:38:32.137Z,90.58
2022-09-17T07:41:01.167Z,91.34
2022-09-17T07:43:29.883Z,91.85
2022-09-17T07:45:58.425Z,90.18
2022-09-17T07:48:26.411Z,89.42
2022-09-17T07:50:54.149Z,90.19
2022-09-17T07:53:22.582Z,89.55
2022-09-17T07:55:55.169Z,87.67
2022-09-17T07:58:23.008Z,88.26
2022-09-17T08:00:50.839Z,88.69
2022-09-17T08:03:18.523Z,89.27
2022-09-17T08:05:46.058Z,90.86
2022-09-17T08:08:14.244Z,92.25
2022-09-17T08:10:44.130Z,93.43
2022-09-17T08:13:13.053Z,92.80
2022-09-17T08:15:40.649Z,93.15
2022-09-17T08:18:08.537Z,89.88
2022-09-17T08:20:36.133Z,90.54
2022-09-17T08:23:03.684Z,89.21
2022-09-17T08:25:31.212Z,89.58
2022-09-17T08:27:58.769Z,88.37
2022-09-17T08:30:28.261Z,87.57
2022-09-17T08:32:56.658Z,84.44
2022-09-17T08:35:26.123Z,84.08
2022-09-17T08:37:55.641Z,83.40
2022-09-17T08:40:23.547Z,84.24
2022-09-17T08:42:56.526Z,83.93
2022-09-17T08:45:26.349Z,82.11
2022-09-17T08:47:57.209Z,83.85
2022-09-17T08:50:28.607Z,83.27
2022-09-17T08:53:21.314Z,81.27
2022-09-17T08:55:52.964Z,78.83
2022-09-17T08:58:38.943Z,79.33
2022-09-17T09:01:17.560Z,78.83
2022-09-17T09:03:59.593Z,79.02
2022-09-17T09:06:31.076Z,78.13
2022-09-17T09:09:03.748Z,77.46
2022-09-17T09:11:32.594Z,76.59
2022-09-17T09:14:05.572Z,74.31
2022-09-17T09:16:34.196Z,76.49
2022-09-17T09:19:16.065Z,78.49
2022-09-17T09:21:49.511Z,74.58
2022-09-17T09:24:20.579Z,75.01
2022-09-17T09:26:51.801Z,72.61
2022-09-17T09:29:29.011Z,72.78
2022-09-17T09:32:15.870Z,73.52
2022-09-17T09:34:46.907Z,71.13
2022-09-17T09:37:18.751Z,69.74
2022-09-17T09:39:47.326Z,70.46
2022-09-17T09:42:17.767Z,69.29
2022-09-17T09:44:45.342Z,69.74
2022-09-17T09:47:24.556Z,71.04
2022-09-17T09:50:08.135Z,71.15
2022-09-17T09:52:49.792Z,70.37
2022-09-17T09:55:33.858Z,72.41
2022-09-17T09:58:07.922Z,73.29
2022-09-17T10:00:37.663Z,74.49
2022-09-17T10:03:10.978Z,74.57
2022-09-17T10:05:40.014Z,73.21
2022-09-17T10:08:14.589Z,71.59
2022-09-17T10:10:55.865Z,71.86
2022-09-17T10:13:23.527Z,69.92
2022-09-17T10:15:51.149Z,71.12
2022-09-17T10:18:20.042Z,71.06
2022-09-17T10:20:54.114Z,70.28
2022-09-17T10:23:22.113Z,69.79
2022-09-17T10:25:52.070Z,69.84
2022-09-17T10:28:30.932Z,69.05
2022-09-17T10:30:59.323Z,66.87
2022-09-17T10:33:28.646Z,67.08
2022-09-17T10:36:01.270Z,65.94
2022-09-17T10:38:34.920Z,66.63
2022-09-17T10:41:17.757Z,67.91
2022-09-17T10:43:45.604Z,66.82
2022-09-17T10:46:17.141Z,65.52
2022-09-17T10:48:47.367Z,66.01
2022-09-17T10:51:23.921Z,66.06
2022-09-17T10:54:04.651Z,66.84
2022-09-17T10:56:36.346Z,65.34
2022-09-17T10:59:18.032Z,65.74
2022-09-17T11:01:56.160Z,64.70
2022-09-17T11:04:30.894Z,63.60
2022-09-17T11:07:30.421Z,63.46
2022-09-17T11:10:04.719Z,64.33
2022-09-17T11:12:42.392Z,65.52
2022-09-17T11:15:26.590Z,64.40
2022-09-17T11:18:04.239Z,64.58
2022-09-17T11:20:42.394Z,67.85
2022-09-17T11:23:27.674Z,69.85
2022-09-17T11:26:00.675Z,70.76
2022-09-17T11:28:43.983Z,71.53
2022-09-17T11:31:24.448Z,72.81
2022-09-17T11:34:06.440Z,72.88
2022-09-17T11:36:39.229Z,72.40
2022-09-17T11:39:12.149Z,69.89
2022-09-17T11:41:43.513Z,68.80
2022-09-17T11:44:14.420Z,67.37
2022-09-17T11:46:44.794Z,67.03
2022-09-17T11:49:17.925Z,67.37
2022-09-17T11:51:49.125Z,66.83
2022-09-17T11:54:22.990Z,65.83
2022-09-17T11:56:52.410Z,64.55
2022-09-17T11:59:26.204Z,65.42
2022-09-17T12:01:57.959Z,64.92
2022-09-17T12:04:38.521Z,63.84
2022-09-17T12:07:18.909Z,64.48
2022-09-17T12:09:51.277Z,65.50
2022-09-17T12:12:45.058Z,65.89
2022-09-17T12:15:16.658Z,64.55
2022-09-17T12:17:46.762Z,64.09
2022-09-17T12:20:23.649Z,63.83
2022-09-17T12:22:52.170Z,62.61
2022-09-17T12:25:21.794Z,60.79
2022-09-17T12:27:54.391Z,62.25
2022-09-17T12:30:25.771Z,61.50
2022-09-17T12:33:15.867Z,63.29
2022-09-17T12:36:10.842Z,62.04
2022-09-17T12:38:55.890Z,61.66
2022-09-17T12:41:30.653Z,61.97
2022-09-17T12:44:07.651Z,61.91
2022-09-17T12:46:55.605Z,60.06
2022-09-17T12:49:38.851Z,59.97
2022-09-17T12:52:09.386Z,61.84
2022-09-17T12:54:57.379Z,60.30
2022-09-17T12:57:33.624Z,60.84
2022-09-17T13:00:07.909Z,61.43
2022-09-17T13:02:39.534Z,61.51
2022-09-17T13:05:51.739Z,63.35
2022-09-17T13:09:00.602Z,63.88
2022-09-17T13:11:50.941Z,65.88
2022-09-17T13:14:26.549Z,69.90
2022-09-17T13:16:56.563Z,69.27
2022-09-17T13:19:32.280Z,67.52
2022-09-17T13:22:02.633Z,66.73
2022-09-17T13:24:31.549Z,65.74
2022-09-17T13:27:02.023Z,65.00
2022-09-17T13:30:03.667Z,64.56
2022-09-17T13:32:50.971Z,64.94
2022-09-17T13:35:52.447Z,64.26
2022-09-17T13:38:23.690Z,63.75
2022-09-17T13:40:59.393Z,64.20
2022-09-17T13:43:28.038Z,64.67
2022-09-17T13:46:17.784Z,65.78
2022-09-17T13:48:49.298Z,64.03
2022-09-17T13:51:59.443Z,63.68
2022-09-17T13:54:38.844Z,66.48
2022-09-17T13:57:10.171Z,73.29
2022-09-17T13:59:38.401Z,77.21
2022-09-17T14:02:32.685Z,81.26
2022-09-17T14:05:36.888Z,81.43
2022-09-17T14:08:14.017Z,82.24
2022-09-17T14:10:44.131Z,81.67
2022-09-17T14:13:27.013Z,82.13
2022-09-17T14:16:03.563Z,83.06
2022-09-17T14:18:36.954Z,79.78
2022-09-17T14:21:14.491Z,80.41
2022-09-17T14:23:46.936Z,78.09
2022-09-17T14:26:20.913Z,77.71
2022-09-17T14:28:51.497Z,78.55
2022-09-17T14:31:20.909Z,79.90
2022-09-17T14:33:49.904Z,80.74
2022-09-17T14:36:20.213Z,80.46
2022-09-17T14:38:49.120Z,78.76
2022-09-17T14:41:21.576Z,77.51
2022-09-17T14:43:51.675Z,75.57
2022-09-17T14:46:22.385Z,73.85
2022-09-17T14:48:51.704Z,75.18
2022-09-17T14:51:28.174Z,75.04
2022-09-17T14:54:22.526Z,75.08
2022-09-17T14:56:53.984Z,85.98
2022-09-17T14:59:30.612Z,87.27
2022-09-17T15:01:58.458Z,89.59
2022-09-17T15:04:28.649Z,91.58
2022-09-17T15:07:08.139Z,92.61
2022-09-17T15:09:35.726Z,93.65
2022-09-17T15:12:04.740Z,94.13
2022-09-17T15:14:33.992Z,94.71
2022-09-17T15:17:02.856Z,96.34
2022-09-17T15:19:35.962Z,98.53
2022-09-17T15:22:06.609Z,100.00
2022-09-17T15:24:39.969Z,100.00
2022-09-17T15:27:13.730Z,100.00
2022-09-17T15:29:43.900Z,99.88
2022-09-17T15:32:13.777Z,99.25
2022-09-17T15:34:42.855Z,98.47
2022-09-17T15:37:20.279Z,99.04
2022-09-17T15:39:52.913Z,100.00
2022-09-17T15:42:22.994Z,100.00
2022-09-17T15:44:50.911Z,100.00
2022-09-17T15:47:45.724Z,99.91
2022-09-17T15:50:16.891Z,97.89
2022-09-17T15:52:44.800Z,98.26
2022-09-17T15:55:30.460Z,97.82
2022-09-17T15:57:59.082Z,97.67
2022-09-17T16:00:27.065Z,97.72
2022-09-17T16:02:55.578Z,96.49
2022-09-17T16:05:55.628Z,94.95
2022-09-17T16:08:25.282Z,95.94
2022-09-17T16:10:53.104Z,96.40
2022-09-17T16:13:23.194Z,97.97
2022-09-17T16:15:54.185Z,97.53
2022-09-17T16:18:21.802Z,96.94
2022-09-17T16:20:50.837Z,95.16
2022-09-17T16:23:18.520Z,96.37
2022-09-17T16:25:46.066Z,98.13
2022-09-17T16:28:15.094Z,99.15
2022-09-17T16:30:45.987Z,99.44
2022-09-17T16:33:14.613Z,100.00
2022-09-17T16:35:43.042Z,100.00
2022-09-17T16:38:12.872Z,100.00
2022-09-17T16:40:44.035Z,100.00
2022-09-17T16:43:11.851Z,98.90
2022-09-17T16:45:39.774Z,98.09
2022-09-17T16:48:07.889Z,98.34
2022-09-17T16:50:36.347Z,99.59
2022-09-17T16:53:05.498Z,100.00
2022-09-17T16:55:34.556Z,100.00
2022-09-17T16:58:02.959Z,100.00
2022-09-17T17:00:30.570Z,100.00
2022-09-17T17:02:58.696Z,100.00
2022-09-17T17:05:27.766Z,100.00
2022-09-17T17:07:55.962Z,100.00
2022-09-17T17:10:23.945Z,100.00
2022-09-17T17:12:52.952Z,100.00
2022-09-17T17:15:21.554Z,100.00
2022-09-17T17:17:49.162Z,100.00
2022-09-17T17:20:16.856Z,100.00
2022-09-17T17:22:44.682Z,100.00
2022-09-17T17:25:13.962Z,99.27
2022-09-17T17:27:41.776Z,98.97
2022-09-17T17:30:16.675Z,98.59
2022-09-17T17:32:44.839Z,97.86
2022-09-17T17:35:12.825Z,96.65
2022-09-17T17:37:40.366Z,95.78
2022-09-17T17:40:09.584Z,94.67
2022-09-17T17:42:38.770Z,94.83
2022-09-17T17:45:07.844Z,95.67
2022-09-17T17:47:36.819Z,96.65
2022-09-17T17:50:05.046Z,96.34
2022-09-17T17:52:32.775Z,96.17
2022-09-17T17:55:00.319Z,96.92
2022-09-17T17:57:28.305Z,96.43
2022-09-17T17:59:55.886Z,96.07
2022-09-17T18:02:23.517Z,95.83
2022-09-17T18:04:52.533Z,96.43
2022-09-17T18:07:20.045Z,97.69
2022-09-17T18:09:47.796Z,98.01
2022-09-17T18:12:15.514Z,97.80
2022-09-17T18:14:43.052Z,97.31
2022-09-17T18:17:10.647Z,98.56
2022-09-17T18:19:38.301Z,100.00
2022-09-17T18:22:07.326Z,100.00
2022-09-17T18:24:34.893Z,100.00
2022-09-17T18:27:02.414Z,100.00
2022-09-17T18:29:30.089Z,100.00
2022-09-17T18:31:57.603Z,100.00
2022-09-17T18:34:25.308Z,100.00
2022-09-17T18:36:53.185Z,100.00
2022-09-17T18:42:09.676Z,100.00
2022-09-17T18:44:37.250Z,100.00
2022-09-17T18:47:04.914Z,100.00
2022-09-17T18:49:32.420Z,100.00
2022-09-17T18:51:59.929Z,100.00
2022-09-17T18:54:28.878Z,100.00
2022-09-17T18:56:56.591Z,100.00
2022-09-17T18:59:24.145Z,100.00
2022-09-17T19:01:51.745Z,100.00
2022-09-17T19:04:19.292Z,100.00
2022-09-17T19:06:46.882Z,100.00
2022-09-17T19:09:14.541Z,100.00
2022-09-17T19:11:43.460Z,100.00
2022-09-17T19:14:11.674Z,100.00
2022-09-17T19:16:39.606Z,100.00
2022-09-17T19:19:07.153Z,100.00
2022-09-17T19:21:34.742Z,100.00
2022-09-17T19:24:03.090Z,100.00
2022-09-17T19:26:30.636Z,100.00
2022-09-17T19:29:00.453Z,100.00
2022-09-17T19:31:28.693Z,100.00
2022-09-17T19:33:58.430Z,100.00
2022-09-17T19:36:26.079Z,100.00
2022-09-17T19:38:53.655Z,100.00
2022-09-17T19:41:23.005Z,100.00
2022-09-17T19:43:51.844Z,100.00
2022-09-17T19:46:22.260Z,100.00
2022-09-17T19:48:53.586Z,100.00
2022-09-17T19:51:24.360Z,100.00
2022-09-17T19:53:52.281Z,100.00
2022-09-17T19:56:21.942Z,100.00
2022-09-17T19:58:49.445Z,100.00
2022-09-17T20:01:17.376Z,100.00
2022-09-17T20:03:46.677Z,100.00
2022-09-17T20:06:15.874Z,100.00
2022-09-17T20:08:47.345Z,100.00
2022-09-17T20:11:16.030Z,100.00
2022-09-17T20:13:43.563Z,100.00
2022-09-17T20:16:12.980Z,100.00
2022-09-17T20:18:40.558Z,100.00
2022-09-17T20:21:10.354Z,100.00
2022-09-17T20:23:38.101Z,100.00
2022-09-17T20:26:06.469Z,100.00
2022-09-17T20:28:34.177Z,100.00
2022-09-17T20:31:03.146Z,100.00
2022-09-17T20:33:30.973Z,100.00
2022-09-17T20:35:59.926Z,100.00
2022-09-17T20:41:17.505Z,100.00
2022-09-17T20:43:46.436Z,100.00
2022-09-17T20:46:14.400Z,100.00
2022-09-17T20:48:42.276Z,100.00
2022-09-17T20:51:12.080Z,100.00
2022-09-17T20:53:42.019Z,100.00
2022-09-17T20:56:11.093Z,100.00
2022-09-17T20:58:45.251Z,100.00
2022-09-17T21:01:14.812Z,100.00
2022-09-17T21:03:43.561Z,100.00
2022-09-17T21:06:16.957Z,100.00
2022-09-17T21:08:46.397Z,100.00
2022-09-17T21:11:14.409Z,100.00
2022-09-17T21:13:42.427Z,100.00
2022-09-17T21:16:10.438Z,100.00
2022-09-17T21:18:39.766Z,100.00
2022-09-17T21:21:09.280Z,100.00
2022-09-17T21:23:38.023Z,100.00
2022-09-17T21:26:08.324Z,100.00
2022-09-17T21:28:36.939Z,100.00
2022-09-17T21:31:06.093Z,100.00
2022-09-17T21:33:33.708Z,100.00
2022-09-17T21:36:06.131Z,100.00
2022-09-17T21:38:33.854Z,100.00
2022-09-17T21:41:03.316Z,100.00
2022-09-17T21:43:32.475Z,100.00
2022-09-17T21:46:04.486Z,100.00
2022-09-17T21:48:33.965Z,100.00
2022-09-17T21:51:06.305Z,100.00
2022-09-17T21:53:34.207Z,100.00
2022-09-17T21:56:06.949Z,100.00
2022-09-17T21:58:35.922Z,100.00
2022-09-17T22:01:08.087Z,100.00
2022-09-17T22:03:35.973Z,100.00
2022-09-17T22:06:05.960Z,100.00
2022-09-17T22:08:34.407Z,100.00
2022-09-17T22:11:07.236Z,100.00
2022-09-17T22:13:36.790Z,100.00
2022-09-17T22:16:06.077Z,100.00
2022-09-17T22:18:35.072Z,100.00
2022-09-17T22:21:02.859Z,100.00
2022-09-17T22:23:33.482Z,100.00
2022-09-17T22:26:02.271Z,100.00
2022-09-17T22:28:29.824Z,100.00
2022-09-17T22:31:02.045Z,100.00
2022-09-17T22:33:32.813Z,100.00
2022-09-17T22:36:04.436Z,100.00
2022-09-17T22:38:32.034Z,100.00
2022-09-17T22:41:04.295Z,100.00
2022-09-17T22:43:31.986Z,100.00
2022-09-17T22:46:00.987Z,100.00
2022-09-17T22:48:28.530Z,100.00
2022-09-17T22:50:56.064Z,100.00
2022-09-17T22:53:23.603Z,100.00
2022-09-17T22:55:55.033Z,100.00
2022-09-17T22:58:24.244Z,100.00
2022-09-17T23:00:53.037Z,100.00
2022-09-17T23:03:21.964Z,100.00
2022-09-17T23:05:49.575Z,100.00
2022-09-17T23:08:17.208Z,100.00
2022-09-17T23:10:44.836Z,100.00
2022-09-17T23:13:12.411Z,100.00
2022-09-17T23:15:40.496Z,100.00
2022-09-17T23:18:08.559Z,100.00
2022-09-17T23:20:37.525Z,100.00
2022-09-17T23:23:05.096Z,100.00
2022-09-17T23:25:33.270Z,100.00
2022-09-17T23:28:00.900Z,100.00
2022-09-17T23:30:28.990Z,100.00
2022-09-17T23:32:57.330Z,100.00
2022-09-17T23:35:25.155Z,100.00
2022-09-17T23:37:54.005Z,100.00
2022-09-17T23:40:22.161Z,100.00
2022-09-17T23:42:49.755Z,100.00
2022-09-17T23:45:17.433Z,100.00
2022-09-17T23:47:45.411Z,100.00
2022-09-17T23:50:13.248Z,100.00
2022-09-17T23:52:40.842Z,100.00
2022-09-17T23:55:10.576Z,100.00
2022-09-17T23:57:38.983Z,100.00
